Main page
METAR-TAF:

METAR-TAF

Airports :

Ibadan Airport

Ibadan, Nigeria

latitude: 07-26N, longitude: 003-54E, elevation: 234 m

METAR: missing

Time: 07:25 (06:25 UTC)

Forecast

The report was made 14 hours and 40 minutes ago, at 15:45 UTC
Forecast valid from 22 at 18 UTC to 23 at 24 UTC
Wind 2 kt from variable directions
Visibility 10 km or more
Scattered clouds at a height of 900 ft
Temporary
from 22 at 18 UTC to 22 at 24 UTC
Scattered clouds at a height of 900 ft
Few clouds at a height of 2000 ft, Cumulonimbus.
thunderstorm
Probability 30%
from 22 at 20 UTC to 23 at 00 UTC
Visibility: 5000 m
Broken clouds at a height of 900 ft
thunderstorm, light rain
Becoming
from 23 at 08 UTC to 23 at 10 UTC
Wind 10 kt from the Southwest
Broken clouds at a height of 1400 ft

TAF: DNIB 221545Z 2218/2324 VRB02KT 9999 SCT009 TEMPO 2218/2224 TS SCT009 FEW020CB PROB30 2220/2300 5000 -TSRA BKN009 BECMG 2308/2310 23010KT BKN014

Weather observations and forecasts of more than 4000 airports (METAR and TAF reports).

The available stations are represented by yellow and red dots on the map.

Hover mouse over dot to see the name of the station.

Then click to see weather observations and forecasts.

To change the map : click on the green buttons with a black cross to zoom in, on the green button with a dash to zoom out, or on the green arrows for adjacent maps.


METAR-TAF: